Time;durP1;ratioP1;P1;durP2;ratioP2;P2;SDS_P1;SDS_P2;PMS_P1;PMS_P2;Temp;Humidity;BMP_temperature;BMP_pressure;BME280_temperature;BME280_humidity;BME280_pressure;Samples;Min_cycle;Max_cycle;Signal;HPM_P1;HPM_P2
2020/12/12 00:01:48;;;;;;;7.47;3.38;;;14.20;69.60;;;;;;5011677;28;20033;-80
2020/12/12 00:04:13;;;;;;;4.60;2.88;;;14.20;69.60;;;;;;5026775;28;20100;-80
2020/12/12 00:06:43;;;;;;;7.32;3.67;;;14.20;69.60;;;;;;5012357;28;20053;-79
2020/12/12 00:09:09;;;;;;;6.60;3.40;;;14.20;69.60;;;;;;5013241;28;20091;-80
2020/12/12 00:11:59;;;;;;;6.97;3.22;;;14.20;69.60;;;;;;5009716;28;20430;-77
2020/12/12 00:14:24;;;;;;;6.45;4.22;;;14.20;69.50;;;;;;5029349;28;20128;-80
2020/12/12 00:16:53;;;;;;;4.07;3.22;;;14.20;69.50;;;;;;5030401;28;20108;-79
2020/12/12 00:19:19;;;;;;;5.32;3.50;;;14.20;69.50;;;;;;5029571;28;20033;-80
2020/12/12 00:21:52;;;;;;;5.05;3.03;;;14.30;69.50;;;;;;5028965;28;20033;-80
2020/12/12 00:24:18;;;;;;;6.40;3.25;;;14.20;69.50;;;;;;5031737;28;20041;-80
2020/12/12 00:26:44;;;;;;;6.70;3.85;;;14.20;69.50;;;;;;5005585;28;20042;-80
2020/12/12 00:29:12;;;;;;;6.05;3.38;;;14.30;69.50;;;;;;5008929;28;20044;-79
2020/12/12 00:31:39;;;;;;;9.10;3.35;;;14.30;69.50;;;;;;5030922;28;20040;-80
2020/12/12 00:34:05;;;;;;;7.35;3.17;;;14.20;69.50;;;;;;5008368;28;20137;-80
2020/12/12 00:36:30;;;;;;;4.72;3.30;;;14.20;69.50;;;;;;5027874;28;20112;-79
2020/12/12 00:39:00;;;;;;;5.45;3.25;;;14.20;69.50;;;;;;5012850;28;20417;-79
2020/12/12 00:41:26;;;;;;;6.43;3.25;;;14.20;69.50;;;;;;5010013;28;20475;-80
2020/12/12 00:43:52;;;;;;;4.82;2.95;;;14.20;69.40;;;;;;5014483;28;20132;-81
2020/12/12 00:46:26;;;;;;;6.50;3.42;;;14.20;69.50;;;;;;5026116;28;20073;-79
2020/12/12 00:48:52;;;;;;;6.45;3.45;;;14.20;69.40;;;;;;5006665;28;20398;-80
2020/12/12 00:51:22;;;;;;;5.85;3.28;;;14.20;69.50;;;;;;5010575;28;20041;-79
2020/12/12 00:53:49;;;;;;;7.40;3.50;;;14.20;69.40;;;;;;5014963;28;20045;-80
2020/12/12 00:56:15;;;;;;;5.78;3.45;;;14.20;69.40;;;;;;5007742;28;20073;-80
2020/12/12 00:58:42;;;;;;;7.53;3.20;;;14.20;69.40;;;;;;5031237;28;20076;-80
2020/12/12 01:01:08;;;;;;;6.60;4.22;;;14.20;69.40;;;;;;5012532;28;20038;-80
2020/12/12 01:03:34;;;;;;;7.75;3.50;;;14.20;69.40;;;;;;5011040;28;20045;-79
2020/12/12 01:06:00;;;;;;;6.38;3.38;;;14.30;69.40;;;;;;5014345;28;20087;-79
2020/12/12 01:08:26;;;;;;;4.05;3.10;;;14.20;69.40;;;;;;5007887;28;20037;-79
2020/12/12 01:10:52;;;;;;;6.63;3.53;;;14.20;69.40;;;;;;5028195;28;20091;-80
2020/12/12 01:13:18;;;;;;;5.32;3.05;;;14.30;69.40;;;;;;5012438;28;20048;-80
2020/12/12 01:15:44;;;;;;;5.88;4.00;;;14.20;69.40;;;;;;5030483;28;20387;-80
2020/12/12 01:18:10;;;;;;;5.57;3.20;;;14.20;69.40;;;;;;5012772;28;20041;-80
2020/12/12 01:20:37;;;;;;;4.38;3.05;;;14.20;69.40;;;;;;5029862;28;20030;-79
2020/12/12 01:23:02;;;;;;;3.58;2.38;;;14.20;69.40;;;;;;5012241;28;20124;-80
2020/12/12 01:25:28;;;;;;;7.50;3.67;;;14.20;69.30;;;;;;5026950;28;20113;-79
2020/12/12 01:27:54;;;;;;;5.13;3.28;;;14.20;69.40;;;;;;5013622;28;20110;-79
2020/12/12 01:30:19;;;;;;;5.32;3.58;;;14.20;69.40;;;;;;5013044;28;20037;-80
2020/12/12 01:32:45;;;;;;;4.82;2.88;;;14.20;69.40;;;;;;5024325;28;20046;-79
2020/12/12 01:35:11;;;;;;;5.35;3.25;;;14.20;69.40;;;;;;5024324;28;20390;-79
2020/12/12 01:37:36;;;;;;;5.30;2.85;;;14.30;69.40;;;;;;5011673;28;20171;-80
2020/12/12 01:40:04;;;;;;;5.35;3.30;;;14.20;69.30;;;;;;5030388;28;20041;-80
2020/12/12 01:42:33;;;;;;;6.38;2.95;;;14.20;69.30;;;;;;5005735;28;20064;-80
2020/12/12 01:44:59;;;;;;;5.68;3.50;;;14.20;69.30;;;;;;5026461;28;20052;-79
2020/12/12 01:47:26;;;;;;;6.35;3.05;;;14.20;69.30;;;;;;5002084;28;20061;-80
2020/12/12 01:49:53;;;;;;;5.10;3.42;;;14.30;69.30;;;;;;4988619;28;20034;-79
2020/12/12 01:52:19;;;;;;;6.20;3.00;;;14.20;69.30;;;;;;5009597;28;20032;-80
2020/12/12 01:54:48;;;;;;;6.05;3.20;;;14.20;69.30;;;;;;5024247;28;20513;-79
2020/12/12 01:57:21;;;;;;;5.88;2.92;;;14.20;69.30;;;;;;5016709;28;20040;-80
2020/12/12 01:59:48;;;;;;;7.00;3.72;;;14.20;69.30;;;;;;4994184;28;20053;-80
2020/12/12 02:02:16;;;;;;;5.47;3.10;;;14.20;69.30;;;;;;5003413;28;20026;-80
2020/12/12 02:05:11;;;;;;;5.82;3.13;;;14.20;69.30;;;;;;5016099;28;20065;-80
2020/12/12 02:07:36;;;;;;;3.63;2.78;;;14.20;69.30;;;;;;5014314;28;20041;-79
2020/12/12 02:10:02;;;;;;;6.88;3.50;;;14.20;69.30;;;;;;5022606;28;20060;-79
2020/12/12 02:12:28;;;;;;;5.20;2.92;;;14.20;69.20;;;;;;4994110;28;20382;-80
2020/12/12 02:14:54;;;;;;;5.55;3.08;;;14.20;69.20;;;;;;5016753;28;20124;-79
2020/12/12 02:17:19;;;;;;;5.15;3.00;;;14.20;69.20;;;;;;5010740;28;20116;-79
2020/12/12 02:19:45;;;;;;;4.88;3.17;;;14.20;69.20;;;;;;5013848;28;20041;-79
2020/12/12 02:22:10;;;;;;;4.05;2.60;;;14.20;69.20;;;;;;5012951;28;20355;-79
2020/12/12 02:24:36;;;;;;;4.32;2.95;;;14.20;69.20;;;;;;5012061;28;20038;-80
2020/12/12 02:27:04;;;;;;;5.07;2.95;;;14.20;69.20;;;;;;4996711;28;20045;-80
2020/12/12 02:29:49;;;;;;;5.25;3.05;;;14.20;69.20;;;;;;5000291;28;20045;-80
2020/12/12 02:32:15;;;;;;;4.80;2.53;;;14.20;69.10;;;;;;5016225;28;20458;-79
2020/12/12 02:34:41;;;;;;;5.15;3.08;;;14.20;69.20;;;;;;5021734;28;20045;-79
2020/12/12 02:37:07;;;;;;;5.85;2.90;;;14.20;69.20;;;;;;5012508;28;20038;-80
2020/12/12 02:39:33;;;;;;;4.57;3.00;;;14.20;69.20;;;;;;5002867;28;20493;-79
2020/12/12 02:41:58;;;;;;;4.28;2.90;;;14.20;69.20;;;;;;4998376;28;20037;-79
2020/12/12 02:44:24;;;;;;;5.45;3.20;;;14.20;69.20;;;;;;5005465;28;20108;-79
2020/12/12 02:46:50;;;;;;;5.00;2.80;;;14.20;69.20;;;;;;5020843;28;20410;-79
2020/12/12 02:49:15;;;;;;;5.57;2.97;;;14.20;69.20;;;;;;5030077;28;20069;-79
2020/12/12 02:51:42;;;;;;;3.05;2.30;;;14.20;69.20;;;;;;5012141;28;20080;-79
2020/12/12 02:54:08;;;;;;;4.72;2.92;;;14.20;69.10;;;;;;5001238;28;20045;-79
2020/12/12 02:56:34;;;;;;;5.13;3.13;;;14.20;69.20;;;;;;5001784;28;20092;-79
2020/12/12 02:59:00;;;;;;;5.35;3.00;;;14.20;69.10;;;;;;5016765;28;20196;-79
2020/12/12 03:01:26;;;;;;;4.28;3.05;;;14.20;69.10;;;;;;4991436;28;20436;-79
2020/12/12 03:03:52;;;;;;;4.60;2.90;;;14.20;69.10;;;;;;4998660;28;20042;-79
2020/12/12 03:06:18;;;;;;;4.90;3.15;;;14.20;69.10;;;;;;5008874;28;20132;-80
2020/12/12 03:08:44;;;;;;;4.18;3.00;;;14.20;69.10;;;;;;5003471;28;20127;-80
2020/12/12 03:11:10;;;;;;;6.30;3.10;;;14.20;69.20;;;;;;4996834;28;20168;-79
2020/12/12 03:13:35;;;;;;;4.20;3.00;;;14.20;69.10;;;;;;5021967;28;20025;-80
2020/12/12 03:16:01;;;;;;;4.68;2.75;;;14.20;69.10;;;;;;4997810;28;20044;-79
2020/12/12 03:18:26;;;;;;;7.93;3.72;;;14.20;69.20;;;;;;5017878;28;20467;-80
2020/12/12 03:20:52;;;;;;;5.20;3.08;;;14.20;69.10;;;;;;5015652;28;20033;-80
2020/12/12 03:23:18;;;;;;;6.70;3.47;;;14.20;69.10;;;;;;5002313;28;20045;-79
2020/12/12 03:25:49;;;;;;;5.65;3.08;;;14.20;69.10;;;;;;4993649;28;20073;-79
2020/12/12 03:28:14;;;;;;;4.95;2.63;;;14.20;69.10;;;;;;4996792;28;20034;-78
2020/12/12 03:30:40;;;;;;;4.05;2.88;;;14.20;69.10;;;;;;5021332;28;20041;-79
2020/12/12 03:33:05;;;;;;;3.80;2.72;;;14.20;69.10;;;;;;4998453;28;20042;-78
2020/12/12 03:35:32;;;;;;;4.50;2.80;;;14.20;69.10;;;;;;5021291;28;20091;-79
2020/12/12 03:37:59;;;;;;;5.25;2.83;;;14.20;69.10;;;;;;5022666;28;20095;-79
2020/12/12 03:40:25;;;;;;;5.70;3.15;;;14.20;69.10;;;;;;4989392;28;20038;-79
2020/12/12 03:42:51;;;;;;;5.95;3.03;;;14.20;69.10;;;;;;5021042;28;20049;-78
2020/12/12 03:45:18;;;;;;;4.60;3.08;;;14.20;69.00;;;;;;5018889;28;20091;-80
2020/12/12 03:47:45;;;;;;;3.38;2.67;;;14.20;69.10;;;;;;4994130;28;20069;-79
2020/12/12 03:50:10;;;;;;;5.78;2.92;;;14.20;69.00;;;;;;5017336;28;20044;-79
2020/12/12 03:52:36;;;;;;;5.22;3.03;;;14.20;69.00;;;;;;4998522;28;20038;-80
2020/12/12 03:55:02;;;;;;;4.95;2.78;;;14.20;69.00;;;;;;4995195;28;20080;-80
2020/12/12 03:57:28;;;;;;;5.25;2.92;;;14.20;69.00;;;;;;5011593;28;20030;-79
2020/12/12 03:59:53;;;;;;;4.80;2.83;;;14.20;69.00;;;;;;5013556;28;20525;-78
2020/12/12 04:02:21;;;;;;;3.63;2.75;;;14.20;69.00;;;;;;5016865;28;20037;-79
2020/12/12 04:04:47;;;;;;;4.70;3.47;;;14.20;69.00;;;;;;5019059;28;20053;-79
2020/12/12 04:07:13;;;;;;;3.78;2.50;;;14.20;69.00;;;;;;4998619;28;20047;-79
2020/12/12 04:09:38;;;;;;;4.60;3.22;;;14.20;69.00;;;;;;5013085;28;20033;-80
2020/12/12 04:12:04;;;;;;;5.45;3.17;;;14.20;69.00;;;;;;5014493;28;20077;-79
2020/12/12 04:14:30;;;;;;;4.28;2.75;;;14.20;69.00;;;;;;5024423;28;20037;-79
2020/12/12 04:16:56;;;;;;;5.28;2.90;;;14.20;69.00;;;;;;4996690;28;20057;-79
2020/12/12 04:19:22;;;;;;;4.72;2.80;;;14.20;69.00;;;;;;4998397;28;20467;-79
2020/12/12 04:21:47;;;;;;;4.95;2.83;;;14.20;68.90;;;;;;5014755;28;20037;-79
2020/12/12 04:24:13;;;;;;;3.63;2.80;;;14.20;68.90;;;;;;5020480;28;20056;-79
2020/12/12 04:26:38;;;;;;;4.63;2.50;;;14.20;68.90;;;;;;5009909;28;20034;-79
2020/12/12 04:29:09;;;;;;;3.90;2.67;;;14.20;69.00;;;;;;5010625;28;20045;-79
2020/12/12 04:31:34;;;;;;;4.03;2.42;;;14.20;68.90;;;;;;5011167;28;20037;-79
2020/12/12 04:34:00;;;;;;;3.70;2.70;;;14.20;68.90;;;;;;5009648;28;20410;-80
2020/12/12 04:36:26;;;;;;;4.63;2.90;;;14.20;68.90;;;;;;5021936;28;20038;-79
2020/12/12 04:38:52;;;;;;;4.68;2.75;;;14.20;68.90;;;;;;4996643;28;20350;-79
2020/12/12 04:41:18;;;;;;;3.15;2.33;;;14.20;68.90;;;;;;5022022;28;20435;-79
2020/12/12 04:43:44;;;;;;;5.80;3.17;;;14.20;68.90;;;;;;4998989;28;20045;-79
2020/12/12 04:46:12;;;;;;;3.58;2.78;;;14.20;68.90;;;;;;5025263;28;20353;-79
2020/12/12 04:48:39;;;;;;;4.38;2.67;;;14.20;68.90;;;;;;5012519;28;20087;-79
2020/12/12 04:51:06;;;;;;;3.85;2.40;;;14.20;68.90;;;;;;5020920;28;20074;-79
2020/12/12 04:53:36;;;;;;;3.97;2.70;;;14.20;68.90;;;;;;5007533;28;20045;-80
2020/12/12 04:56:04;;;;;;;4.40;2.97;;;14.20;68.90;;;;;;5025866;28;20030;-79
2020/12/12 04:58:30;;;;;;;4.65;2.53;;;14.20;68.90;;;;;;5029197;28;20064;-80
2020/12/12 05:00:57;;;;;;;3.92;2.67;;;14.20;68.90;;;;;;5030057;28;20104;-79
2020/12/12 05:03:25;;;;;;;3.92;2.63;;;14.20;68.90;;;;;;5028664;28;20049;-79
2020/12/12 05:05:53;;;;;;;4.63;2.90;;;14.20;68.90;;;;;;5031228;28;20099;-79
2020/12/12 05:08:19;;;;;;;3.85;2.80;;;14.20;68.90;;;;;;5007536;28;20045;-79
2020/12/12 05:10:46;;;;;;;4.45;3.28;;;14.20;68.90;;;;;;5030007;28;20045;-82
2020/12/12 05:13:13;;;;;;;4.10;2.70;;;14.20;68.90;;;;;;5003704;28;20040;-79
2020/12/12 05:15:39;;;;;;;3.55;2.20;;;14.20;68.90;;;;;;5014071;28;20064;-78
2020/12/12 05:18:05;;;;;;;4.18;2.78;;;14.20;68.90;;;;;;5029604;28;20037;-79
2020/12/12 05:20:32;;;;;;;4.13;2.67;;;14.20;68.90;;;;;;5029892;28;20041;-79
2020/12/12 05:22:58;;;;;;;4.15;2.70;;;14.20;68.90;;;;;;5030966;28;20524;-78
2020/12/12 05:25:23;;;;;;;4.07;2.40;;;14.20;68.90;;;;;;5029553;28;20033;-79
2020/12/12 05:27:50;;;;;;;2.53;2.25;;;14.20;68.90;;;;;;5030374;28;20084;-78
2020/12/12 05:30:16;;;;;;;3.20;2.53;;;14.20;68.90;;;;;;5005597;28;20498;-79
2020/12/12 05:32:45;;;;;;;3.28;2.40;;;14.20;68.90;;;;;;5012248;28;20065;-79
2020/12/12 05:35:10;;;;;;;3.78;2.65;;;14.20;68.90;;;;;;5009335;28;20042;-78
2020/12/12 05:37:40;;;;;;;3.58;2.67;;;14.20;68.90;;;;;;5010825;28;20045;-79
2020/12/12 05:40:06;;;;;;;3.60;2.58;;;14.20;68.90;;;;;;5027919;28;20065;-79
2020/12/12 05:42:35;;;;;;;4.53;3.05;;;14.20;68.90;;;;;;5011100;28;20064;-79
2020/12/12 05:45:04;;;;;;;4.38;3.05;;;14.20;68.90;;;;;;5030704;28;20497;-79
2020/12/12 05:47:30;;;;;;;3.95;2.67;;;14.20;68.90;;;;;;5029209;28;20041;-79
2020/12/12 05:49:55;;;;;;;3.85;2.95;;;14.20;68.90;;;;;;5026047;28;20034;-79
2020/12/12 05:52:22;;;;;;;4.03;2.80;;;14.20;68.90;;;;;;5029797;28;20033;-79
2020/12/12 05:54:49;;;;;;;3.67;2.70;;;14.20;68.90;;;;;;5026694;28;20099;-79
2020/12/12 05:57:15;;;;;;;5.47;2.97;;;14.20;68.90;;;;;;5011034;28;20029;-79
2020/12/12 05:59:42;;;;;;;3.92;2.72;;;14.20;68.90;;;;;;5024123;28;20502;-79
2020/12/12 06:02:16;;;;;;;4.10;2.72;;;14.20;68.80;;;;;;5009081;28;20485;-79
2020/12/12 06:04:50;;;;;;;2.75;2.05;;;14.20;68.80;;;;;;5028984;28;20318;-79
2020/12/12 06:07:33;;;;;;;3.22;2.75;;;14.20;68.90;;;;;;5016068;28;20038;-79
2020/12/12 06:10:04;;;;;;;3.72;2.33;;;14.20;68.90;;;;;;5027243;28;20067;-79
2020/12/12 06:12:31;;;;;;;3.50;2.35;;;14.20;68.90;;;;;;5034031;28;20057;-78
2020/12/12 06:14:58;;;;;;;3.05;2.42;;;14.20;68.80;;;;;;5004982;28;20048;-79
2020/12/12 06:17:45;;;;;;;4.18;2.53;;;14.20;68.80;;;;;;5033676;28;20056;-79
2020/12/12 06:20:14;;;;;;;5.60;3.05;;;14.20;68.90;;;;;;5005037;28;20038;-79
2020/12/12 06:22:43;;;;;;;3.97;2.55;;;14.20;68.90;;;;;;5032221;28;20029;-78
2020/12/12 06:25:14;;;;;;;3.55;2.47;;;14.20;68.90;;;;;;5008045;28;20049;-79
2020/12/12 06:27:51;;;;;;;4.15;2.80;;;14.20;68.90;;;;;;5011570;28;20037;-79
2020/12/12 06:30:17;;;;;;;2.60;2.03;;;14.20;68.90;;;;;;5012349;28;20072;-79
2020/12/12 06:32:47;;;;;;;3.72;2.55;;;14.30;68.90;;;;;;5032331;28;20040;-79
2020/12/12 06:35:16;;;;;;;3.70;2.67;;;14.20;68.90;;;;;;5015525;28;20042;-79
2020/12/12 06:37:42;;;;;;;3.50;2.50;;;14.20;68.90;;;;;;5034585;28;20042;-79
2020/12/12 06:40:15;;;;;;;2.90;2.53;;;14.30;68.90;;;;;;5033328;28;20536;-79
2020/12/12 06:42:45;;;;;;;2.95;2.40;;;14.30;68.90;;;;;;5034771;28;20045;-79
2020/12/12 06:45:17;;;;;;;5.40;2.65;;;14.20;68.90;;;;;;5022562;28;20053;-78
2020/12/12 06:47:43;;;;;;;4.88;2.33;;;14.20;68.90;;;;;;5008660;28;20488;-79
2020/12/12 06:50:13;;;;;;;3.78;2.50;;;14.20;68.90;;;;;;5012937;28;20042;-79
2020/12/12 06:52:41;;;;;;;3.92;2.90;;;14.30;68.90;;;;;;4997466;28;20547;-79
2020/12/12 06:55:12;;;;;;;2.88;2.38;;;14.20;68.90;;;;;;5012718;28;20070;-78
2020/12/12 06:57:43;;;;;;;3.40;2.20;;;14.30;68.90;;;;;;4992143;28;20030;-79
2020/12/12 07:00:32;;;;;;;4.70;2.60;;;14.20;68.90;;;;;;5013179;28;20044;-79
2020/12/12 07:03:03;;;;;;;3.47;2.55;;;14.20;68.90;;;;;;4993621;28;20038;-79
2020/12/12 07:05:35;;;;;;;3.33;2.65;;;14.30;68.90;;;;;;5012269;28;20061;-79
2020/12/12 07:08:08;;;;;;;4.50;2.13;;;14.30;68.80;;;;;;5016468;28;20041;-78
2020/12/12 07:10:36;;;;;;;3.70;2.88;;;14.20;68.80;;;;;;4982718;28;20034;-79
2020/12/12 07:13:08;;;;;;;4.70;3.08;;;14.30;68.90;;;;;;5011573;28;20120;-79
2020/12/12 07:15:36;;;;;;;3.17;2.50;;;14.30;68.80;;;;;;5015723;28;20125;-79
2020/12/12 07:18:12;;;;;;;4.07;2.47;;;14.20;68.90;;;;;;5013982;28;20045;-78
2020/12/12 07:20:43;;;;;;;3.22;2.38;;;14.30;68.80;;;;;;5013410;28;20124;-79
2020/12/12 07:23:09;;;;;;;4.38;3.10;;;14.30;68.80;;;;;;5014060;28;20037;-79
2020/12/12 07:25:35;;;;;;;3.20;2.42;;;14.30;68.90;;;;;;5017325;28;20049;-79
2020/12/12 07:28:02;;;;;;;4.80;2.60;;;14.30;68.80;;;;;;5018298;28;20427;-79
2020/12/12 07:30:28;;;;;;;6.25;2.78;;;14.30;68.80;;;;;;5013607;28;20501;-79
2020/12/12 07:32:54;;;;;;;3.03;2.40;;;14.30;68.80;;;;;;5018907;28;20169;-78
2020/12/12 07:35:20;;;;;;;4.20;2.72;;;14.30;68.80;;;;;;5015354;28;20085;-78
2020/12/12 07:37:46;;;;;;;3.80;2.75;;;14.30;68.80;;;;;;4993091;28;20407;-79
2020/12/12 07:40:11;;;;;;;3.35;2.50;;;14.30;68.80;;;;;;5011075;28;20038;-79
2020/12/12 07:42:37;;;;;;;4.38;3.30;;;14.30;68.80;;;;;;5016689;28;20033;-79
2020/12/12 07:45:24;;;;;;;3.35;2.50;;;14.30;68.70;;;;;;5016888;28;20451;-78
2020/12/12 07:47:50;;;;;;;2.70;2.00;;;14.30;68.70;;;;;;5008009;28;20054;-79
2020/12/12 07:50:16;;;;;;;3.53;2.67;;;14.30;68.70;;;;;;5031698;28;20032;-79
2020/12/12 07:52:43;;;;;;;3.85;2.85;;;14.30;68.70;;;;;;5033279;28;20487;-79
2020/12/12 07:55:18;;;;;;;2.97;2.30;;;14.30;68.70;;;;;;5032878;28;20029;-78
2020/12/12 07:57:51;;;;;;;3.45;2.33;;;14.30;68.70;;;;;;5011133;28;20391;-79
2020/12/12 08:00:16;;;;;;;3.75;2.40;;;14.30;68.70;;;;;;5028076;28;20037;-78
2020/12/12 08:02:44;;;;;;;3.53;2.42;;;14.30;68.70;;;;;;5014762;28;20037;-80
2020/12/12 08:05:10;;;;;;;2.75;2.28;;;14.30;68.70;;;;;;5030081;28;20045;-79
2020/12/12 08:07:36;;;;;;;3.00;1.98;;;14.30;68.70;;;;;;5032420;28;20394;-79
2020/12/12 08:10:04;;;;;;;3.13;2.35;;;14.30;68.70;;;;;;5031245;28;20040;-79
2020/12/12 08:12:32;;;;;;;;;;;14.30;68.70;;;;;;5033686;28;20471;-79
2020/12/12 08:15:17;;;;;;;3.42;2.25;;;14.30;68.80;;;;;;5014820;28;20281;-78
2020/12/12 08:17:44;;;;;;;5.00;2.60;;;14.30;68.70;;;;;;5011693;28;20042;-79
2020/12/12 08:20:14;;;;;;;3.03;2.53;;;14.30;68.80;;;;;;5011168;28;20478;-79
2020/12/12 08:22:40;;;;;;;5.15;2.22;;;14.30;68.70;;;;;;5033906;28;20033;-79
2020/12/12 08:25:07;;;;;;;3.30;2.33;;;14.30;68.70;;;;;;5015636;28;20037;-80
2020/12/12 08:27:34;;;;;;;3.55;2.67;;;14.30;68.60;;;;;;5032558;28;20030;-78
2020/12/12 08:30:00;;;;;;;4.20;2.42;;;14.30;68.60;;;;;;5011703;28;20041;-79
2020/12/12 08:32:33;;;;;;;3.88;2.30;;;14.30;68.60;;;;;;5028169;28;20104;-78
2020/12/12 08:35:30;;;;;;;3.33;2.38;;;14.30;68.70;;;;;;5032781;28;20037;-78
2020/12/12 08:38:01;;;;;;;3.30;2.20;;;14.30;68.60;;;;;;5033588;28;20041;-79
2020/12/12 08:40:32;;;;;;;2.20;1.90;;;14.30;68.60;;;;;;5032049;28;20056;-78
2020/12/12 08:43:05;;;;;;;2.80;2.08;;;14.30;68.60;;;;;;5010628;28;20038;-79
2020/12/12 08:45:30;;;;;;;3.35;2.38;;;14.40;68.60;;;;;;5015438;28;20073;-78
2020/12/12 08:48:30;;;;;;;3.80;2.45;;;14.30;68.50;;;;;;5009361;28;20073;-78
2020/12/12 08:51:03;;;;;;;3.33;2.20;;;14.40;68.50;;;;;;5014595;28;20045;-78
2020/12/12 08:53:30;;;;;;;3.97;2.35;;;14.40;68.50;;;;;;5032201;28;20337;-78
2020/12/12 08:56:08;;;;;;;3.42;2.42;;;14.40;68.50;;;;;;5029183;28;20041;-79
2020/12/12 08:58:53;;;;;;;2.95;2.15;;;14.40;68.50;;;;;;5031609;28;20092;-78
2020/12/12 09:01:35;;;;;;;3.88;2.35;;;14.40;68.50;;;;;;5024210;28;20057;-79
2020/12/12 09:04:08;;;;;;;1.90;1.70;;;14.40;68.50;;;;;;5024243;28;20041;-79
2020/12/12 09:06:57;;;;;;;2.67;2.17;;;14.40;68.50;;;;;;5013265;28;20034;-79
2020/12/12 09:09:43;;;;;;;3.00;2.15;;;14.40;68.50;;;;;;5009303;28;20061;-79
2020/12/12 09:12:10;;;;;;;3.22;2.28;;;14.40;68.50;;;;;;5009605;28;20117;-78
2020/12/12 09:14:42;;;;;;;2.67;2.05;;;14.40;68.50;;;;;;5011209;28;20041;-79
2020/12/12 09:17:09;;;;;;;2.97;2.50;;;14.40;68.50;;;;;;5013723;28;20509;-79
2020/12/12 09:19:36;;;;;;;3.80;2.47;;;14.40;68.50;;;;;;5031539;28;20047;-78
2020/12/12 09:22:06;;;;;;;3.42;2.20;;;14.40;68.40;;;;;;5006706;28;20358;-78
2020/12/12 09:24:31;;;;;;;3.00;2.00;;;14.40;68.40;;;;;;5031300;28;20041;-79
2020/12/12 09:27:08;;;;;;;2.83;2.15;;;14.40;68.40;;;;;;5008298;28;20562;-79
2020/12/12 09:29:34;;;;;;;2.90;2.20;;;14.40;68.30;;;;;;5019942;28;20025;-79
2020/12/12 09:32:00;;;;;;;2.70;2.20;;;14.40;68.30;;;;;;5011102;28;20128;-79
2020/12/12 09:34:25;;;;;;;3.10;2.33;;;14.40;68.30;;;;;;5032355;28;20134;-78
2020/12/12 09:36:55;;;;;;;3.10;2.40;;;14.40;68.30;;;;;;5031218;28;20041;-77
2020/12/12 09:39:21;;;;;;;5.45;2.35;;;14.40;68.30;;;;;;5029844;28;20057;-79
2020/12/12 09:41:47;;;;;;;3.13;2.35;;;14.40;68.30;;;;;;5032146;28;20467;-79
2020/12/12 09:44:13;;;;;;;2.85;2.20;;;14.50;68.30;;;;;;5029670;28;20041;-78
2020/12/12 09:46:38;;;;;;;3.05;2.50;;;14.50;68.30;;;;;;5008171;28;20040;-79
2020/12/12 09:49:04;;;;;;;3.78;2.22;;;14.40;68.30;;;;;;5010243;28;20512;-79
2020/12/12 09:51:29;;;;;;;4.18;2.47;;;14.50;68.30;;;;;;5013449;28;20486;-78
2020/12/12 09:53:56;;;;;;;2.53;2.22;;;14.40;68.40;;;;;;5032495;28;20060;-78
2020/12/12 09:56:22;;;;;;;3.33;2.40;;;14.50;68.40;;;;;;5013423;28;20034;-79
2020/12/12 09:58:48;;;;;;;2.85;2.35;;;14.40;68.40;;;;;;5026958;28;20406;-78
2020/12/12 10:01:14;;;;;;;2.97;2.58;;;14.50;68.40;;;;;;5012021;28;20551;-78
2020/12/12 10:03:41;;;;;;;2.85;1.73;;;14.50;68.30;;;;;;5011992;28;20075;-78
2020/12/12 10:06:08;;;;;;;2.25;2.03;;;14.50;68.30;;;;;;5030453;28;20038;-79
2020/12/12 10:08:34;;;;;;;3.92;2.35;;;14.50;68.20;;;;;;5015166;28;20040;-78
2020/12/12 10:11:00;;;;;;;2.38;1.88;;;14.50;68.30;;;;;;4998542;28;20076;-79
2020/12/12 10:13:25;;;;;;;2.40;1.90;;;14.50;68.20;;;;;;5014896;28;20143;-79
2020/12/12 10:15:51;;;;;;;3.00;2.08;;;14.50;68.20;;;;;;5031082;28;20453;-78
2020/12/12 10:18:16;;;;;;;3.00;2.13;;;14.50;68.20;;;;;;5013474;28;20454;-78
2020/12/12 10:20:42;;;;;;;3.28;2.50;;;14.50;68.20;;;;;;5013285;28;20120;-78
2020/12/12 10:23:08;;;;;;;2.63;2.05;;;14.60;68.20;;;;;;5014153;28;20044;-78
2020/12/12 10:25:34;;;;;;;3.47;2.10;;;14.50;68.20;;;;;;5012342;28;20075;-78
2020/12/12 10:28:00;;;;;;;3.20;2.08;;;14.60;68.20;;;;;;5013501;28;20068;-78
2020/12/12 10:30:27;;;;;;;4.25;2.50;;;14.50;68.20;;;;;;5030069;28;20038;-79
2020/12/12 10:32:53;;;;;;;2.47;1.98;;;14.50;68.20;;;;;;5011448;28;20449;-79
2020/12/12 10:35:18;;;;;;;2.13;1.75;;;14.50;68.20;;;;;;5032208;28;20057;-79
2020/12/12 10:37:44;;;;;;;6.75;2.78;;;14.60;68.20;;;;;;5030085;28;20517;-78
2020/12/12 10:42:36;;;;;;;2.55;1.83;;;14.60;68.10;;;;;;5031388;28;20095;-78
2020/12/12 10:45:06;;;;;;;2.78;2.10;;;14.60;68.10;;;;;;5015669;28;20050;-79
2020/12/12 10:47:33;;;;;;;3.50;2.20;;;14.60;68.10;;;;;;5000529;28;20034;-78
2020/12/12 10:49:58;;;;;;;2.35;1.90;;;14.60;68.00;;;;;;5013668;28;20033;-78
2020/12/12 10:52:24;;;;;;;3.95;2.00;;;14.60;68.10;;;;;;4997183;28;20038;-78
2020/12/12 10:54:51;;;;;;;4.47;1.95;;;14.60;68.00;;;;;;5012253;28;20080;-77
2020/12/12 10:57:17;;;;;;;4.05;1.98;;;14.60;68.00;;;;;;5013042;28;20038;-79
2020/12/12 10:59:42;;;;;;;4.35;2.13;;;14.60;68.10;;;;;;5014561;28;20029;-78
2020/12/12 11:02:14;;;;;;;5.82;2.13;;;14.60;68.10;;;;;;5012848;28;20038;-78
2020/12/12 11:04:41;;;;;;;3.45;2.08;;;14.60;68.10;;;;;;5015560;28;20037;-78
2020/12/12 11:07:07;;;;;;;3.50;2.08;;;14.60;68.10;;;;;;5014182;28;20046;-79
2020/12/12 11:09:34;;;;;;;2.60;1.70;;;14.60;68.10;;;;;;5015217;28;20033;-79
2020/12/12 11:11:59;;;;;;;3.75;2.00;;;14.60;68.10;;;;;;5013461;28;20034;-79
2020/12/12 11:14:29;;;;;;;4.65;2.00;;;14.70;68.00;;;;;;5029847;28;20048;-78
2020/12/12 11:16:56;;;;;;;2.65;1.77;;;14.60;68.00;;;;;;5013813;28;20113;-78
2020/12/12 11:19:22;;;;;;;2.83;2.33;;;14.70;68.00;;;;;;4996716;28;20042;-79
2020/12/12 11:21:48;;;;;;;3.20;1.80;;;14.70;68.00;;;;;;5012269;28;20034;-78
2020/12/12 11:24:14;;;;;;;3.35;1.88;;;14.70;68.00;;;;;;5009636;28;20438;-78
2020/12/12 11:26:40;;;;;;;2.45;1.77;;;14.70;67.90;;;;;;5014304;28;20030;-78
2020/12/12 11:29:06;;;;;;;2.10;1.65;;;14.70;67.90;;;;;;5010637;28;20391;-78
2020/12/12 11:31:31;;;;;;;8.15;2.08;;;14.70;67.90;;;;;;5012991;28;20041;-79
2020/12/12 11:34:12;;;;;;;2.33;1.80;;;14.70;67.90;;;;;;5012015;28;20044;-78
2020/12/12 11:37:17;;;;;;;2.13;1.80;;;14.70;67.90;;;;;;5011940;28;20376;-78
2020/12/12 11:47:34;;;;;;;2.70;1.52;;;14.70;67.90;;;;;;5028901;28;20040;-79
2020/12/12 11:49:59;;;;;;;3.10;1.63;;;14.80;67.80;;;;;;5033679;28;20041;-79
2020/12/12 11:52:25;;;;;;;3.00;2.15;;;14.80;67.70;;;;;;5034353;28;20463;-78
2020/12/12 11:54:51;;;;;;;2.53;1.80;;;14.80;67.80;;;;;;5024159;28;20372;-78
2020/12/12 11:57:16;;;;;;;3.03;2.05;;;14.70;67.80;;;;;;5028974;28;20454;-78
2020/12/12 11:59:43;;;;;;;1.98;1.75;;;14.70;67.80;;;;;;5021220;28;20526;-79
2020/12/12 12:02:10;;;;;;;2.85;1.70;;;14.80;67.80;;;;;;5006974;28;20069;-78
2020/12/12 12:04:35;;;;;;;2.45;1.60;;;14.70;67.80;;;;;;5012867;28;20042;-78
2020/12/12 12:07:02;;;;;;;2.45;1.90;;;14.80;67.80;;;;;;5032401;28;20095;-78
2020/12/12 12:09:42;;;;;;;2.42;1.73;;;14.80;67.80;;;;;;5012316;28;20033;-79
2020/12/12 12:12:08;;;;;;;2.58;1.77;;;14.70;67.80;;;;;;5031151;28;20036;-78
2020/12/12 12:14:38;;;;;;;1.95;1.48;;;14.70;67.80;;;;;;5031319;28;20034;-79
2020/12/12 12:17:22;;;;;;;2.65;1.80;;;14.70;67.80;;;;;;5031264;28;20035;-78
2020/12/12 12:19:55;;;;;;;3.38;1.67;;;14.80;67.80;;;;;;5029968;28;20065;-78
2020/12/12 12:22:36;;;;;;;2.72;1.67;;;14.80;67.90;;;;;;5033973;28;20178;-78
2020/12/12 12:25:13;;;;;;;2.22;1.92;;;14.80;67.90;;;;;;5028412;28;20041;-78
2020/12/12 12:27:53;;;;;;;1.63;1.48;;;14.80;67.90;;;;;;4995544;28;20459;-79
2020/12/12 12:30:23;;;;;;;3.38;2.00;;;14.80;67.90;;;;;;5030779;28;20038;-78
2020/12/12 12:33:11;;;;;;;4.13;1.75;;;14.70;67.90;;;;;;5025441;28;20124;-78
2020/12/12 12:35:44;;;;;;;2.10;1.70;;;14.80;68.00;;;;;;5028897;28;20045;-79
2020/12/12 12:38:22;;;;;;;2.20;1.83;;;14.70;68.00;;;;;;5027953;28;20485;-78
2020/12/12 12:40:54;;;;;;;3.60;1.95;;;14.80;68.00;;;;;;5010860;28;20037;-78
2020/12/12 12:43:41;;;;;;;2.92;1.65;;;14.70;68.00;;;;;;5028063;28;20040;-78
2020/12/12 12:46:15;;;;;;;1.92;1.58;;;14.80;67.90;;;;;;5030324;28;20124;-78
2020/12/12 12:48:54;;;;;;;3.00;1.48;;;14.80;67.90;;;;;;5009587;28;20041;-76
2020/12/12 12:51:25;;;;;;;3.03;1.40;;;14.80;67.90;;;;;;5013961;28;20048;-77
2020/12/12 12:54:02;;;;;;;3.42;1.73;;;14.80;67.90;;;;;;5030483;28;20594;-77
2020/12/12 12:56:32;;;;;;;2.50;1.80;;;14.80;67.80;;;;;;5030942;28;20033;-77
2020/12/12 12:59:10;;;;;;;5.13;1.60;;;14.80;67.80;;;;;;5029287;28;20040;-77
2020/12/12 13:01:50;;;;;;;2.58;1.73;;;14.80;67.80;;;;;;5028672;28;20124;-77
2020/12/12 13:04:16;;;;;;;1.98;1.60;;;14.80;67.80;;;;;;5031199;28;20072;-77
2020/12/12 13:06:50;;;;;;;5.95;2.00;;;14.80;67.80;;;;;;5031306;28;20434;-77